Time;durP1;ratioP1;P1;durP2;ratioP2;P2;SDS_P1;SDS_P2;PMS_P1;PMS_P2;Temp;Humidity;BMP_temperature;BMP_pressure;BME280_temperature;BME280_humidity;BME280_pressure;Samples;Min_cycle;Max_cycle;Signal;HPM_P1;HPM_P2
2022/03/04 00:00:25;;;;;;;14.60;2.50;;;10.30;85.30;;;;;;5018886;28;20049;-73
2022/03/04 00:02:52;;;;;;;13.00;2.50;;;10.20;85.10;;;;;;5036658;28;20018;-74
2022/03/04 00:05:18;;;;;;;16.73;2.65;;;10.20;84.80;;;;;;5035345;28;20061;-73
2022/03/04 00:07:43;;;;;;;16.15;2.83;;;10.30;85.00;;;;;;5037011;28;20514;-73
2022/03/04 00:10:09;;;;;;;13.60;2.63;;;10.30;85.10;;;;;;5036507;28;20053;-73
2022/03/04 00:12:35;;;;;;;10.93;2.63;;;10.30;85.40;;;;;;5020087;28;21398;-74
2022/03/04 00:15:00;;;;;;;11.32;2.67;;;10.30;84.70;;;;;;5017324;28;20037;-74
2022/03/04 00:17:26;;;;;;;8.40;2.38;;;10.30;83.90;;;;;;5017298;28;20097;-74
2022/03/04 00:19:52;;;;;;;10.30;2.53;;;10.30;85.10;;;;;;5047815;28;20423;-74
2022/03/04 00:22:17;;;;;;;14.43;2.45;;;10.20;84.40;;;;;;5049361;28;20030;-74
2022/03/04 00:24:44;;;;;;;16.45;2.92;;;10.30;85.00;;;;;;5048834;28;20029;-74
2022/03/04 00:27:10;;;;;;;10.38;2.83;;;10.20;83.90;;;;;;5048566;28;20025;-74
2022/03/04 00:29:35;;;;;;;9.68;2.25;;;10.10;85.20;;;;;;5015523;28;20508;-73
2022/03/04 00:32:01;;;;;;;5.13;2.25;;;10.20;84.80;;;;;;5034629;28;20052;-74
2022/03/04 00:34:27;;;;;;;11.98;2.22;;;10.30;84.90;;;;;;5036827;28;20079;-73
2022/03/04 00:36:53;;;;;;;12.98;2.05;;;10.30;84.60;;;;;;5035382;28;20025;-74
2022/03/04 00:39:19;;;;;;;15.70;2.28;;;10.30;84.40;;;;;;5018156;28;20029;-74
2022/03/04 00:41:44;;;;;;;12.77;2.72;;;10.30;84.30;;;;;;5016512;28;20022;-74
2022/03/04 00:44:10;;;;;;;10.80;2.42;;;10.20;84.10;;;;;;5015012;28;20036;-73
2022/03/04 00:46:36;;;;;;;13.90;2.60;;;10.20;84.30;;;;;;5016697;28;20495;-74
2022/03/04 00:49:03;;;;;;;9.15;2.38;;;10.20;84.30;;;;;;5016544;28;20064;-73
2022/03/04 00:51:29;;;;;;;17.73;2.55;;;10.10;84.10;;;;;;5016220;28;20843;-74
2022/03/04 00:53:55;;;;;;;14.77;3.13;;;10.20;84.20;;;;;;5048333;28;20072;-73
2022/03/04 00:56:21;;;;;;;18.77;2.63;;;10.20;84.20;;;;;;5016232;28;20605;-73
2022/03/04 00:58:46;;;;;;;15.43;2.83;;;10.20;84.50;;;;;;5016495;28;20476;-73
2022/03/04 01:01:12;;;;;;;12.13;2.67;;;10.10;83.70;;;;;;5037814;28;20402;-74
2022/03/04 01:03:38;;;;;;;15.90;3.03;;;10.20;84.30;;;;;;5055937;28;20086;-73
2022/03/04 01:06:06;;;;;;;10.85;2.78;;;10.20;83.90;;;;;;5055960;28;20029;-74
2022/03/04 01:08:32;;;;;;;16.58;3.00;;;10.20;84.00;;;;;;5048748;28;20220;-74
2022/03/04 01:10:58;;;;;;;20.27;3.28;;;10.20;84.20;;;;;;5016236;28;20435;-74
2022/03/04 01:13:24;;;;;;;17.05;2.67;;;10.20;83.60;;;;;;5031486;28;20045;-74
2022/03/04 01:15:50;;;;;;;8.73;2.80;;;10.20;84.20;;;;;;5015300;28;20511;-74
2022/03/04 01:18:16;;;;;;;10.98;2.83;;;10.20;83.70;;;;;;5020863;28;20045;-74
2022/03/04 01:20:42;;;;;;;18.70;2.88;;;10.10;83.80;;;;;;5029626;28;20557;-74
2022/03/04 01:23:08;;;;;;;11.02;2.85;;;10.10;83.90;;;;;;5027073;28;20053;-74
2022/03/04 01:25:34;;;;;;;13.52;2.15;;;10.00;83.90;;;;;;5014462;28;20061;-74
2022/03/04 01:28:00;;;;;;;18.95;3.90;;;10.00;84.00;;;;;;5031063;28;20037;-74
2022/03/04 01:30:26;;;;;;;18.10;3.00;;;10.00;84.00;;;;;;5015776;28;20105;-74
2022/03/04 01:32:51;;;;;;;12.65;3.13;;;10.00;84.30;;;;;;5015837;28;20060;-74
2022/03/04 01:35:17;;;;;;;8.48;1.92;;;10.00;84.40;;;;;;5015944;28;20026;-74
2022/03/04 01:37:43;;;;;;;16.55;2.65;;;10.00;83.80;;;;;;5015379;28;20026;-73
2022/03/04 01:40:10;;;;;;;9.93;2.63;;;10.00;84.60;;;;;;5015649;28;20061;-74
2022/03/04 01:42:37;;;;;;;14.55;3.08;;;10.00;83.90;;;;;;5015844;28;20091;-73
2022/03/04 01:45:05;;;;;;;12.43;2.45;;;10.00;84.30;;;;;;5015712;28;20500;-73
2022/03/04 01:47:31;;;;;;;16.58;3.03;;;9.90;83.60;;;;;;5015553;28;20038;-73
2022/03/04 01:49:56;;;;;;;15.10;2.53;;;9.90;83.70;;;;;;5015381;28;20038;-73
2022/03/04 01:52:22;;;;;;;13.15;2.80;;;10.00;84.80;;;;;;5015628;28;20432;-73
2022/03/04 01:54:48;;;;;;;11.57;2.33;;;9.90;84.20;;;;;;5015348;28;20022;-73
2022/03/04 01:57:13;;;;;;;14.80;2.53;;;9.90;84.30;;;;;;5015254;28;20164;-73
2022/03/04 01:59:39;;;;;;;16.85;2.58;;;10.00;84.20;;;;;;5015552;28;20485;-72
2022/03/04 02:02:06;;;;;;;15.15;3.13;;;10.00;84.10;;;;;;5029443;28;20038;-73
2022/03/04 02:04:32;;;;;;;17.10;2.45;;;10.00;83.40;;;;;;5015680;28;20018;-73
2022/03/04 02:06:57;;;;;;;19.95;3.08;;;10.00;83.70;;;;;;5014433;28;20044;-73
2022/03/04 02:09:23;;;;;;;13.35;2.28;;;9.90;83.30;;;;;;5013915;28;20058;-73
2022/03/04 02:11:49;;;;;;;13.93;3.30;;;9.90;83.50;;;;;;5013710;28;20026;-73
2022/03/04 02:14:15;;;;;;;10.80;2.13;;;9.90;83.10;;;;;;5015072;28;20034;-72
2022/03/04 02:16:48;;;;;;;12.52;2.03;;;9.80;82.80;;;;;;5015421;28;20022;-72
2022/03/04 02:19:14;;;;;;;6.47;2.17;;;9.80;83.30;;;;;;5034433;28;20025;-73
2022/03/04 02:21:56;;;;;;;18.70;2.20;;;9.80;83.00;;;;;;5039858;28;20049;-73
2022/03/04 02:24:24;;;;;;;14.07;2.95;;;9.90;83.50;;;;;;5021373;28;20051;-72
2022/03/04 02:26:51;;;;;;;16.92;2.58;;;9.80;82.90;;;;;;5022618;28;20042;-73
2022/03/04 02:29:18;;;;;;;5.03;2.08;;;9.90;83.20;;;;;;5017908;28;20062;-73
2022/03/04 02:31:44;;;;;;;11.48;2.17;;;9.80;81.80;;;;;;5018993;28;20026;-73
2022/03/04 02:34:10;;;;;;;15.80;2.30;;;9.60;82.20;;;;;;5017927;28;20154;-73
2022/03/04 02:36:37;;;;;;;14.98;3.08;;;9.70;83.30;;;;;;5017826;28;20516;-73
2022/03/04 02:39:04;;;;;;;11.02;2.08;;;9.70;83.20;;;;;;5017751;28;20042;-73
2022/03/04 02:41:30;;;;;;;10.45;2.17;;;9.70;82.20;;;;;;5018851;28;20076;-72
2022/03/04 02:43:56;;;;;;;11.45;2.25;;;9.60;82.50;;;;;;5038445;28;20121;-72
2022/03/04 02:46:22;;;;;;;12.10;2.15;;;9.60;82.70;;;;;;5038717;28;20108;-72
2022/03/04 02:48:47;;;;;;;11.73;2.00;;;9.70;82.90;;;;;;5037877;28;20136;-72
2022/03/04 02:51:13;;;;;;;9.90;1.80;;;9.60;82.40;;;;;;5017962;28;20071;-72
2022/03/04 02:53:39;;;;;;;8.43;2.10;;;9.70;82.80;;;;;;5017297;28;20388;-72
2022/03/04 02:56:05;;;;;;;8.32;2.22;;;9.70;83.20;;;;;;5018736;28;20818;-72
2022/03/04 02:58:30;;;;;;;7.22;1.70;;;9.60;82.40;;;;;;5018647;28;20407;-72
2022/03/04 03:00:56;;;;;;;6.65;1.85;;;9.70;83.20;;;;;;5018735;28;20092;-72
2022/03/04 03:03:22;;;;;;;10.30;2.42;;;9.80;82.80;;;;;;5018278;28;20034;-72
2022/03/04 03:05:47;;;;;;;8.55;2.03;;;9.80;82.60;;;;;;5018621;28;20034;-72
2022/03/04 03:08:13;;;;;;;6.68;1.75;;;9.80;82.50;;;;;;5018437;28;20045;-72
2022/03/04 03:10:39;;;;;;;15.38;2.45;;;9.80;82.50;;;;;;5049869;28;20108;-72
2022/03/04 03:13:05;;;;;;;10.48;2.17;;;9.80;82.60;;;;;;5018455;28;20538;-72
2022/03/04 03:15:31;;;;;;;12.07;2.03;;;9.70;82.50;;;;;;5018607;28;20026;-72
2022/03/04 03:17:56;;;;;;;12.65;2.00;;;9.80;82.80;;;;;;5018491;28;20041;-72
2022/03/04 03:20:23;;;;;;;10.30;2.15;;;9.80;82.40;;;;;;5057592;28;20032;-72
2022/03/04 03:22:49;;;;;;;9.95;2.03;;;9.70;82.20;;;;;;5056313;28;20032;-72
2022/03/04 03:25:15;;;;;;;5.22;1.63;;;9.70;82.60;;;;;;5038711;28;20030;-72
2022/03/04 03:27:41;;;;;;;8.57;1.80;;;9.70;82.50;;;;;;5033531;28;20036;-72
2022/03/04 03:30:08;;;;;;;10.32;2.08;;;9.70;82.40;;;;;;5049718;28;20029;-72
2022/03/04 03:32:34;;;;;;;7.10;1.90;;;9.70;82.00;;;;;;5018034;28;20053;-72
2022/03/04 03:34:59;;;;;;;7.90;2.15;;;9.80;82.60;;;;;;5022986;28;20488;-72
2022/03/04 03:37:26;;;;;;;6.47;2.40;;;9.70;82.20;;;;;;5015858;28;20025;-72
2022/03/04 03:39:51;;;;;;;8.48;2.47;;;9.70;82.70;;;;;;5017625;28;20034;-72
2022/03/04 03:42:17;;;;;;;9.82;2.33;;;9.80;82.40;;;;;;5018064;28;20029;-72
2022/03/04 03:44:43;;;;;;;9.57;1.98;;;9.80;82.20;;;;;;5018062;28;20476;-72
2022/03/04 03:47:09;;;;;;;8.40;2.25;;;9.80;82.10;;;;;;5016557;28;20520;-72
2022/03/04 03:49:38;;;;;;;10.38;2.53;;;9.70;81.90;;;;;;5017757;28;20396;-72
2022/03/04 03:52:04;;;;;;;10.57;2.17;;;9.80;82.60;;;;;;5049458;28;20511;-72
2022/03/04 03:54:30;;;;;;;13.07;2.63;;;9.80;82.30;;;;;;5017203;28;20022;-72
2022/03/04 03:56:55;;;;;;;11.73;2.65;;;9.80;81.00;;;;;;5016183;28;20041;-72
2022/03/04 03:59:21;;;;;;;12.48;2.35;;;9.80;81.90;;;;;;5016320;28;20018;-72
2022/03/04 04:01:47;;;;;;;8.32;2.08;;;9.80;82.40;;;;;;5017346;28;20037;-72
2022/03/04 04:04:13;;;;;;;11.43;2.53;;;9.80;81.70;;;;;;5017573;28;20029;-72
2022/03/04 04:06:42;;;;;;;11.50;2.10;;;9.70;81.90;;;;;;5017317;28;20034;-72
2022/03/04 04:09:09;;;;;;;13.88;2.60;;;9.50;82.40;;;;;;5017256;28;20451;-72
2022/03/04 04:11:35;;;;;;;10.30;2.53;;;9.60;82.20;;;;;;5016776;28;20026;-72
2022/03/04 04:14:08;;;;;;;10.18;2.33;;;9.60;82.20;;;;;;5017520;28;20496;-72
2022/03/04 04:16:35;;;;;;;4.80;1.88;;;9.70;82.80;;;;;;5017312;28;20030;-72
2022/03/04 04:19:01;;;;;;;19.58;2.55;;;9.70;82.80;;;;;;5034311;28;20104;-72
2022/03/04 04:21:27;;;;;;;9.52;2.45;;;9.70;82.60;;;;;;5021115;28;20041;-72
2022/03/04 04:23:54;;;;;;;14.18;2.22;;;9.70;82.80;;;;;;5017297;28;20408;-72
2022/03/04 04:26:20;;;;;;;12.63;2.65;;;9.70;82.30;;;;;;5016959;28;20038;-72
2022/03/04 04:28:46;;;;;;;16.02;2.33;;;9.60;82.10;;;;;;5016930;28;20443;-72
2022/03/04 04:31:11;;;;;;;11.40;2.22;;;9.60;82.90;;;;;;5030761;28;20037;-72
2022/03/04 04:33:37;;;;;;;5.28;2.40;;;9.60;82.70;;;;;;5017102;28;20030;-72
2022/03/04 04:36:04;;;;;;;13.45;2.85;;;9.70;82.10;;;;;;5016804;28;20030;-72
2022/03/04 04:38:29;;;;;;;12.68;2.70;;;9.60;82.80;;;;;;5016926;28;20641;-72
2022/03/04 04:40:55;;;;;;;9.75;2.72;;;9.60;82.20;;;;;;5016626;28;20026;-72
2022/03/04 04:43:21;;;;;;;11.52;2.03;;;9.60;82.30;;;;;;5016846;28;20030;-72
2022/03/04 04:45:47;;;;;;;12.85;2.92;;;9.50;82.80;;;;;;5031991;28;20499;-72
2022/03/04 04:48:13;;;;;;;13.77;2.65;;;9.50;82.80;;;;;;5016454;28;20115;-72
2022/03/04 04:50:39;;;;;;;12.27;2.72;;;9.50;83.30;;;;;;5017378;28;20037;-72
2022/03/04 04:53:05;;;;;;;18.02;2.75;;;9.50;83.20;;;;;;5016576;28;20829;-72
2022/03/04 04:55:30;;;;;;;13.23;2.38;;;9.50;82.80;;;;;;5016611;28;20373;-72
2022/03/04 04:57:56;;;;;;;8.10;2.20;;;9.50;82.60;;;;;;5016524;28;20026;-72
2022/03/04 05:00:22;;;;;;;7.18;3.10;;;9.60;82.30;;;;;;5016603;28;20076;-72
2022/03/04 05:02:47;;;;;;;8.48;2.45;;;9.50;82.90;;;;;;5016476;28;20026;-72
2022/03/04 05:05:13;;;;;;;9.23;2.70;;;9.60;83.10;;;;;;5015970;28;20094;-72
2022/03/04 05:07:39;;;;;;;8.20;2.10;;;9.50;82.40;;;;;;5016365;28;20108;-72
2022/03/04 05:10:05;;;;;;;11.93;3.20;;;9.50;82.60;;;;;;5031074;28;20097;-72
2022/03/04 05:12:32;;;;;;;11.30;2.28;;;9.50;82.80;;;;;;5016182;28;20026;-72
2022/03/04 05:14:57;;;;;;;15.18;2.53;;;9.40;82.20;;;;;;5016374;28;20054;-72
2022/03/04 05:17:24;;;;;;;8.05;2.75;;;9.50;82.20;;;;;;5016109;28;20060;-72
2022/03/04 05:19:50;;;;;;;10.85;2.55;;;9.50;82.60;;;;;;5028295;28;20038;-71
2022/03/04 05:22:16;;;;;;;8.05;2.55;;;9.50;82.50;;;;;;5015779;28;20022;-74
2022/03/04 05:24:42;;;;;;;10.27;2.53;;;9.50;82.70;;;;;;5031425;28;20259;-73
2022/03/04 05:27:08;;;;;;;13.32;2.88;;;9.50;82.20;;;;;;5015725;28;20030;-72
2022/03/04 05:29:34;;;;;;;12.25;3.15;;;9.40;81.30;;;;;;5015909;28;20089;-73
2022/03/04 05:32:00;;;;;;;4.70;2.05;;;9.50;82.40;;;;;;5015812;28;20109;-73
2022/03/04 05:34:26;;;;;;;8.60;2.63;;;9.50;82.10;;;;;;5015945;28;20029;-73
2022/03/04 05:36:51;;;;;;;8.77;2.33;;;9.50;82.10;;;;;;5015824;28;20022;-73
2022/03/04 05:39:17;;;;;;;5.10;2.13;;;9.60;81.90;;;;;;5015137;28;20036;-73
2022/03/04 06:07:48;;;;;;;8.30;2.33;;;7.80;87.20;;;;;;5072288;28;20391;-76
2022/03/04 06:10:13;;;;;;;6.07;1.95;;;7.90;87.20;;;;;;5071980;28;20024;-75
2022/03/04 06:12:39;;;;;;;10.63;2.28;;;8.20;86.40;;;;;;5059327;28;20028;-76
2022/03/04 06:15:05;;;;;;;10.10;2.65;;;8.40;85.90;;;;;;5058020;28;20021;-76
2022/03/04 06:17:31;;;;;;;13.38;2.70;;;8.70;84.60;;;;;;5063377;28;20085;-73
2022/03/04 06:19:57;;;;;;;6.55;2.00;;;8.80;83.20;;;;;;5072819;28;20493;-74
2022/03/04 06:22:22;;;;;;;12.82;2.47;;;8.90;83.30;;;;;;5069496;28;20036;-73
2022/03/04 06:24:48;;;;;;;8.63;2.10;;;9.00;82.20;;;;;;5068718;28;20017;-74
2022/03/04 06:27:14;;;;;;;8.88;2.10;;;9.10;81.90;;;;;;5071055;28;20103;-74
2022/03/04 06:29:40;;;;;;;5.53;2.50;;;9.10;81.30;;;;;;5068793;28;20092;-74
2022/03/04 06:32:07;;;;;;;15.05;2.88;;;9.20;81.30;;;;;;5064600;28;20923;-74
2022/03/04 06:34:33;;;;;;;7.65;2.28;;;9.20;81.60;;;;;;5065927;28;20048;-76
2022/03/04 06:36:58;;;;;;;6.68;1.65;;;9.20;80.60;;;;;;5067428;28;20102;-74
2022/03/04 06:39:24;;;;;;;7.75;1.98;;;9.20;80.50;;;;;;5066372;28;20530;-74
2022/03/04 06:41:50;;;;;;;3.92;2.10;;;9.20;80.70;;;;;;5059011;28;20073;-74
2022/03/04 06:44:16;;;;;;;10.98;2.65;;;9.20;81.00;;;;;;5051354;28;20060;-74
2022/03/04 06:46:41;;;;;;;5.07;1.73;;;9.20;80.80;;;;;;5051742;28;20120;-74
2022/03/04 06:49:10;;;;;;;7.32;2.08;;;9.10;80.30;;;;;;5051211;28;20395;-74
2022/03/04 06:51:39;;;;;;;6.28;2.00;;;9.10;80.50;;;;;;5051382;28;20518;-73
2022/03/04 06:54:05;;;;;;;6.32;2.20;;;9.00;80.00;;;;;;5048586;28;20114;-74
2022/03/04 06:56:31;;;;;;;7.00;2.20;;;9.10;80.20;;;;;;5067271;28;20108;-74
2022/03/04 06:58:57;;;;;;;6.57;1.58;;;9.00;80.20;;;;;;5069504;28;20084;-74
2022/03/04 07:01:23;;;;;;;5.90;2.20;;;9.00;80.40;;;;;;5060821;28;20025;-74
2022/03/04 07:03:49;;;;;;;9.13;1.85;;;9.10;80.00;;;;;;5050669;28;20025;-74
2022/03/04 07:06:16;;;;;;;15.23;2.00;;;9.20;79.50;;;;;;5050751;28;20063;-74
2022/03/04 07:08:42;;;;;;;4.65;1.55;;;9.20;80.30;;;;;;5062377;28;20044;-74
2022/03/04 07:11:08;;;;;;;16.35;2.22;;;9.30;79.80;;;;;;5066700;28;20040;-74
2022/03/04 07:13:34;;;;;;;5.18;1.85;;;9.30;79.80;;;;;;5069672;28;20017;-73
2022/03/04 07:16:01;;;;;;;5.35;1.60;;;9.20;78.90;;;;;;5070599;28;20044;-74
2022/03/04 07:18:29;;;;;;;9.50;1.83;;;9.20;79.60;;;;;;5062352;28;20144;-74
2022/03/04 07:20:56;;;;;;;7.38;1.60;;;9.30;79.00;;;;;;5060391;28;20029;-74
2022/03/04 07:23:23;;;;;;;7.35;2.67;;;9.30;79.40;;;;;;5057107;28;20457;-75
2022/03/04 07:25:49;;;;;;;12.15;2.20;;;9.30;79.00;;;;;;5056157;28;21113;-74
2022/03/04 07:28:14;;;;;;;8.55;1.52;;;9.30;79.40;;;;;;5057736;28;20091;-74
2022/03/04 07:30:40;;;;;;;5.32;1.85;;;9.30;78.80;;;;;;5060301;28;20021;-74
2022/03/04 07:33:06;;;;;;;11.32;2.10;;;9.30;79.60;;;;;;5052002;28;20021;-75
2022/03/04 07:35:32;;;;;;;9.50;1.80;;;9.30;79.30;;;;;;5046399;28;20028;-74
2022/03/04 07:37:58;;;;;;;7.38;1.77;;;9.30;79.50;;;;;;5055930;28;20021;-75
2022/03/04 07:40:24;;;;;;;7.45;1.77;;;9.40;79.40;;;;;;5057172;28;20498;-74
2022/03/04 07:42:49;;;;;;;9.45;1.98;;;9.40;79.30;;;;;;5051803;28;20029;-74
2022/03/04 07:45:15;;;;;;;5.40;1.60;;;9.40;79.20;;;;;;5044825;28;20036;-74
2022/03/04 07:47:43;;;;;;;10.50;1.70;;;9.50;79.00;;;;;;5057136;28;20264;-74
2022/03/04 07:50:11;;;;;;;9.13;1.85;;;9.70;78.70;;;;;;5045905;28;20406;-74
2022/03/04 07:52:37;;;;;;;5.22;1.92;;;9.70;78.40;;;;;;5037020;28;20033;-74
2022/03/04 07:55:05;;;;;;;10.00;3.00;;;9.60;77.60;;;;;;5037136;28;20035;-74
2022/03/04 07:57:31;;;;;;;11.55;1.85;;;9.70;77.70;;;;;;5036631;28;20021;-74
2022/03/04 07:59:57;;;;;;;9.85;1.88;;;9.70;77.60;;;;;;5037029;28;20036;-74
2022/03/04 08:02:23;;;;;;;3.83;1.88;;;9.80;77.90;;;;;;5036948;28;20041;-74
2022/03/04 08:04:48;;;;;;;9.75;2.95;;;9.90;77.70;;;;;;5036884;28;20499;-74
2022/03/04 08:07:14;;;;;;;5.50;1.45;;;10.00;77.20;;;;;;5068669;28;20049;-74
2022/03/04 08:09:41;;;;;;;12.95;2.28;;;10.20;77.00;;;;;;5073225;28;20118;-74
2022/03/04 08:12:07;;;;;;;7.75;1.80;;;10.30;75.70;;;;;;5066561;28;20071;-74
2022/03/04 08:14:33;;;;;;;7.55;2.10;;;10.50;76.30;;;;;;5067157;28;20025;-74
2022/03/04 08:16:59;;;;;;;8.68;2.08;;;10.50;75.20;;;;;;5056649;28;20502;-74
2022/03/04 08:19:25;;;;;;;11.68;2.17;;;10.40;75.80;;;;;;5067166;28;20071;-74
2022/03/04 08:21:50;;;;;;;6.38;1.73;;;10.50;75.80;;;;;;5039138;28;20519;-74
2022/03/04 08:24:16;;;;;;;5.72;1.60;;;10.40;74.80;;;;;;5036678;28;20491;-74
2022/03/04 08:26:42;;;;;;;10.90;2.20;;;10.30;75.70;;;;;;5036412;28;20440;-74
2022/03/04 08:29:11;;;;;;;7.60;2.05;;;10.30;75.10;;;;;;5049613;28;20025;-74
2022/03/04 08:31:37;;;;;;;6.03;1.98;;;10.30;75.90;;;;;;5054378;28;20079;-74
2022/03/04 08:34:03;;;;;;;9.48;1.83;;;10.30;76.00;;;;;;5056558;28;20040;-74
2022/03/04 08:36:29;;;;;;;9.65;1.85;;;10.40;75.50;;;;;;5038095;28;20034;-74
2022/03/04 08:38:55;;;;;;;12.02;1.95;;;10.40;74.80;;;;;;5054617;28;20021;-74
2022/03/04 08:41:21;;;;;;;7.40;1.52;;;10.50;74.20;;;;;;5054209;28;20032;-74
2022/03/04 08:43:47;;;;;;;8.40;1.65;;;10.70;74.10;;;;;;5051648;28;20038;-73
2022/03/04 08:46:14;;;;;;;8.27;1.95;;;10.70;73.20;;;;;;5054614;28;20060;-74
2022/03/04 08:48:43;;;;;;;13.38;2.10;;;11.20;73.20;;;;;;5055809;28;20025;-74
2022/03/04 08:51:09;;;;;;;5.97;1.48;;;11.50;71.50;;;;;;5055181;28;20033;-74
2022/03/04 08:53:35;;;;;;;11.90;1.88;;;11.60;71.70;;;;;;5054734;28;20487;-74
2022/03/04 08:56:01;;;;;;;8.43;1.65;;;11.30;71.10;;;;;;5055452;28;20043;-74
2022/03/04 08:58:26;;;;;;;9.75;2.30;;;11.40;71.70;;;;;;5054329;28;20544;-73
2022/03/04 09:00:53;;;;;;;4.95;1.75;;;11.50;72.00;;;;;;5055683;28;20028;-74
2022/03/04 09:03:18;;;;;;;4.53;1.67;;;11.50;70.80;;;;;;5053673;28;20032;-74
2022/03/04 09:05:44;;;;;;;5.78;1.75;;;11.40;70.80;;;;;;5050867;28;20045;-73
2022/03/04 09:08:10;;;;;;;4.10;1.58;;;11.60;70.10;;;;;;5035894;28;20399;-74
2022/03/04 09:10:35;;;;;;;4.65;1.55;;;11.80;70.60;;;;;;5036173;28;20055;-74
2022/03/04 09:13:01;;;;;;;6.05;1.48;;;11.70;69.40;;;;;;5054925;28;20021;-74
2022/03/04 09:15:27;;;;;;;7.25;2.40;;;11.80;70.20;;;;;;5054171;28;20102;-74
2022/03/04 09:17:52;;;;;;;9.30;1.60;;;11.80;69.50;;;;;;5054136;28;20077;-74
2022/03/04 09:20:21;;;;;;;7.35;1.88;;;11.80;69.90;;;;;;5074755;28;20482;-74
2022/03/04 09:22:47;;;;;;;4.15;1.50;;;11.70;69.60;;;;;;5041714;28;20029;-74
2022/03/04 09:25:13;;;;;;;8.25;2.00;;;11.70;70.20;;;;;;5051593;28;20017;-74
2022/03/04 09:27:40;;;;;;;5.95;1.48;;;11.70;69.90;;;;;;5055473;28;20471;-74
2022/03/04 09:30:06;;;;;;;4.03;1.48;;;11.50;69.30;;;;;;5051500;28;20032;-74
2022/03/04 09:32:32;;;;;;;8.32;1.70;;;11.50;69.60;;;;;;5035698;28;20026;-73
2022/03/04 09:34:57;;;;;;;7.80;1.80;;;11.60;70.00;;;;;;5054619;28;20021;-75
2022/03/04 09:37:24;;;;;;;9.88;1.75;;;11.80;69.40;;;;;;5054007;28;20106;-74
2022/03/04 09:39:49;;;;;;;4.93;1.75;;;11.90;68.80;;;;;;5052153;28;20048;-74
2022/03/04 09:42:16;;;;;;;11.52;2.00;;;11.90;68.10;;;;;;5053118;28;20025;-74
2022/03/04 09:44:42;;;;;;;10.10;1.67;;;11.80;67.90;;;;;;5053799;28;20928;-75
2022/03/04 09:47:09;;;;;;;7.10;1.73;;;11.90;68.50;;;;;;5054616;28;20467;-74
2022/03/04 09:49:36;;;;;;;9.82;1.83;;;12.20;68.10;;;;;;5052669;28;20162;-74
2022/03/04 09:52:06;;;;;;;8.25;1.65;;;12.20;67.20;;;;;;5054437;28;20489;-74
2022/03/04 09:54:33;;;;;;;11.52;1.75;;;12.20;67.40;;;;;;5052479;28;20020;-74
2022/03/04 09:56:59;;;;;;;3.55;1.65;;;12.10;67.40;;;;;;5052150;28;20106;-74
2022/03/04 09:59:25;;;;;;;6.25;1.77;;;12.10;68.20;;;;;;5054273;28;20017;-74
2022/03/04 10:01:51;;;;;;;5.97;1.10;;;11.80;67.40;;;;;;5051968;28;20487;-74
2022/03/04 10:04:17;;;;;;;9.38;1.63;;;11.80;67.10;;;;;;5053163;28;20017;-74
2022/03/04 10:06:49;;;;;;;4.65;1.60;;;11.90;68.20;;;;;;5053826;28;20077;-74
2022/03/04 10:09:37;;;;;;;9.23;1.75;;;12.20;66.80;;;;;;5051567;28;20021;-74
2022/03/04 10:12:04;;;;;;;9.00;1.63;;;12.30;67.60;;;;;;5041639;28;20045;-74
2022/03/04 10:14:30;;;;;;;2.75;1.40;;;12.50;67.30;;;;;;5053192;28;20025;-74
2022/03/04 10:16:57;;;;;;;7.82;1.63;;;12.60;67.70;;;;;;5054350;28;20025;-74
2022/03/04 10:19:23;;;;;;;3.95;1.23;;;12.70;65.60;;;;;;5054749;28;20024;-75
2022/03/04 10:21:53;;;;;;;8.20;1.25;;;12.60;65.80;;;;;;5051176;28;20021;-75
2022/03/04 10:24:19;;;;;;;5.95;1.50;;;12.60;64.50;;;;;;5054277;28;20017;-75
2022/03/04 10:26:45;;;;;;;5.57;1.70;;;12.50;65.30;;;;;;5051472;28;20031;-74
2022/03/04 10:29:22;;;;;;;4.93;1.50;;;12.70;65.80;;;;;;5054400;28;20025;-74
2022/03/04 10:32:06;;;;;;;6.38;1.80;;;12.80;65.30;;;;;;5051460;28;20024;-74
2022/03/04 10:35:01;;;;;;;6.93;1.60;;;12.90;65.30;;;;;;5052256;28;20092;-74
2022/03/04 10:37:51;;;;;;;5.35;1.50;;;12.90;66.00;;;;;;5051206;28;20040;-74
2022/03/04 10:40:22;;;;;;;7.80;1.90;;;13.00;65.30;;;;;;5052459;28;20017;-75
2022/03/04 10:42:57;;;;;;;8.93;1.88;;;13.20;64.60;;;;;;5051583;28;20548;-74
2022/03/04 10:45:30;;;;;;;11.50;1.88;;;12.90;63.20;;;;;;5052974;28;20124;-74
2022/03/04 10:48:00;;;;;;;5.88;1.80;;;12.70;64.10;;;;;;5052140;28;20037;-74
2022/03/04 10:50:35;;;;;;;6.20;2.22;;;12.80;66.00;;;;;;5048923;28;20028;-74
2022/03/04 10:53:14;;;;;;;9.85;2.15;;;13.00;65.60;;;;;;5055068;28;20025;-74
2022/03/04 10:55:51;;;;;;;7.07;1.60;;;12.90;65.10;;;;;;5056484;28;20063;-74
2022/03/04 10:58:36;;;;;;;8.43;1.95;;;13.00;65.40;;;;;;5055204;28;20029;-74
2022/03/04 11:01:09;;;;;;;7.25;1.80;;;13.20;65.10;;;;;;5057660;28;20047;-74
2022/03/04 11:03:36;;;;;;;7.22;2.63;;;13.70;64.70;;;;;;5056704;28;20132;-75
2022/03/04 11:06:06;;;;;;;8.90;2.30;;;13.50;62.30;;;;;;5057781;28;20049;-74
2022/03/04 11:08:32;;;;;;;9.57;1.48;;;13.10;63.00;;;;;;5059034;28;20024;-74
2022/03/04 11:10:58;;;;;;;8.52;1.50;;;12.90;63.30;;;;;;5069874;28;20100;-74
2022/03/04 11:13:24;;;;;;;7.20;2.10;;;13.10;63.50;;;;;;5058004;28;20036;-74
2022/03/04 11:15:53;;;;;;;9.43;1.95;;;13.00;63.10;;;;;;5057285;28;20033;-74
2022/03/04 11:18:21;;;;;;;3.50;1.70;;;13.20;63.30;;;;;;5052638;28;20426;-74
2022/03/04 11:20:52;;;;;;;10.10;1.60;;;13.10;62.00;;;;;;5052837;28;20056;-74
2022/03/04 11:23:25;;;;;;;7.68;1.58;;;12.80;62.60;;;;;;5074006;28;20033;-73
2022/03/04 11:25:56;;;;;;;7.63;1.63;;;12.40;63.70;;;;;;5054830;28;20033;-73
2022/03/04 11:28:49;;;;;;;6.97;1.70;;;12.50;63.80;;;;;;5053964;28;20093;-73
2022/03/04 11:31:20;;;;;;;5.13;1.05;;;13.00;64.00;;;;;;5043485;28;20030;-73
2022/03/04 11:33:52;;;;;;;6.20;1.52;;;13.50;63.10;;;;;;5047305;28;20067;-73
2022/03/04 11:36:25;;;;;;;3.40;1.25;;;13.80;61.90;;;;;;5058104;28;20032;-74
2022/03/04 11:38:51;;;;;;;4.40;1.17;;;13.30;59.80;;;;;;5048963;28;20078;-74
2022/03/04 11:41:59;;;;;;;5.25;1.23;;;13.10;61.90;;;;;;5041688;28;20021;-74
2022/03/04 11:44:25;;;;;;;8.40;1.48;;;13.00;60.50;;;;;;5049303;28;20041;-74
2022/03/04 11:47:01;;;;;;;5.60;1.30;;;13.30;60.20;;;;;;5049226;28;20136;-76
2022/03/04 11:49:44;;;;;;;9.43;1.90;;;13.60;58.70;;;;;;5049425;28;20029;-73
2022/03/04 11:52:10;;;;;;;4.50;1.38;;;13.70;59.10;;;;;;5043124;28;20037;-73
2022/03/04 11:54:52;;;;;;;9.73;3.17;;;13.40;60.20;;;;;;5051885;28;20051;-74
2022/03/04 11:57:27;;;;;;;4.57;1.20;;;13.10;60.50;;;;;;5055771;28;20035;-74
2022/03/04 11:59:56;;;;;;;7.78;1.75;;;13.20;61.40;;;;;;5048257;28;20029;-77
2022/03/04 12:02:29;;;;;;;5.32;1.02;;;13.30;61.60;;;;;;5046576;28;20052;-79
2022/03/04 12:05:21;;;;;;;6.80;1.33;;;13.50;59.00;;;;;;5042192;28;20463;-77
2022/03/04 12:07:53;;;;;;;5.70;1.42;;;13.70;58.30;;;;;;5044052;28;20051;-76
2022/03/04 12:10:27;;;;;;;4.45;1.10;;;13.70;57.60;;;;;;5049414;28;20029;-74
2022/03/04 12:12:58;;;;;;;5.63;1.65;;;13.90;57.20;;;;;;5045934;28;20422;-85
2022/03/04 12:15:24;;;;;;;3.90;1.00;;;14.00;55.90;;;;;;5046475;28;20029;-77
2022/03/04 12:18:03;;;;;;;4.35;1.00;;;14.20;56.00;;;;;;5039330;28;20112;-77
2022/03/04 12:20:38;;;;;;;2.92;0.95;;;14.10;55.60;;;;;;5044977;28;20075;-75
2022/03/04 12:23:11;;;;;;;4.50;1.40;;;13.70;52.90;;;;;;5047559;28;20029;-75
2022/03/04 12:26:00;;;;;;;6.70;1.50;;;13.80;53.40;;;;;;5048844;28;20028;-76
2022/03/04 12:28:32;;;;;;;7.57;1.50;;;13.80;54.40;;;;;;5039622;28;20083;-78
2022/03/04 12:31:00;;;;;;;8.38;1.50;;;14.00;53.80;;;;;;5044859;28;20399;-74
2022/03/04 12:33:59;;;;;;;5.00;1.25;;;14.10;52.10;;;;;;5045247;28;20560;-77
2022/03/04 12:36:28;;;;;;;2.42;0.95;;;14.10;53.80;;;;;;5025740;28;20058;-77
2022/03/04 12:38:59;;;;;;;4.22;1.38;;;13.90;54.60;;;;;;5055184;28;20406;-77
2022/03/04 12:41:29;;;;;;;5.47;1.40;;;13.70;54.50;;;;;;5055100;28;20036;-77
2022/03/04 12:44:03;;;;;;;;;;;13.60;57.10;;;;;;5055920;28;20395;-77
2022/03/04 12:46:36;;;;;;;3.05;1.15;;;13.30;57.10;;;;;;5052097;28;20000;-77
2022/03/04 12:49:04;;;;;;;9.43;2.65;;;13.40;56.40;;;;;;5055411;28;20028;-77
2022/03/04 12:51:35;;;;;;;6.20;1.55;;;13.50;55.50;;;;;;5054591;28;20487;-77
2022/03/04 12:54:03;;;;;;;11.57;1.77;;;13.60;55.80;;;;;;5051425;28;20487;-77
2022/03/04 12:56:29;;;;;;;5.13;1.15;;;13.80;55.50;;;;;;5053996;28;20379;-77
2022/03/04 12:59:01;;;;;;;3.15;1.25;;;14.10;54.30;;;;;;5053950;28;20051;-77
2022/03/04 13:01:28;;;;;;;4.00;1.00;;;14.00;52.80;;;;;;5052874;28;20120;-77
2022/03/04 13:03:59;;;;;;;4.47;1.38;;;13.70;54.00;;;;;;5052222;28;20029;-77
2022/03/04 13:06:27;;;;;;;9.50;1.52;;;13.70;53.00;;;;;;5052261;28;20045;-77
2022/03/04 13:09:04;;;;;;;3.72;0.93;;;13.70;54.10;;;;;;5050882;28;20140;-77
2022/03/04 13:11:36;;;;;;;4.53;1.23;;;13.00;53.00;;;;;;5052478;28;20021;-77
2022/03/04 13:14:17;;;;;;;6.93;1.50;;;12.80;52.50;;;;;;5055891;28;20379;-77
2022/03/04 13:16:47;;;;;;;1.35;0.75;;;12.60;54.20;;;;;;5053442;28;20117;-79